createdAt,value
2022-09-12T00:00:07.790Z,19.93
2022-09-12T00:01:24.549Z,20.10
2022-09-12T00:02:40.983Z,20.33
2022-09-12T00:03:57.401Z,19.83
2022-09-12T00:05:13.759Z,20.19
2022-09-12T00:06:31.134Z,20.15
2022-09-12T00:07:47.830Z,20.14
2022-09-12T00:09:04.218Z,20.53
2022-09-12T00:10:20.608Z,20.09
2022-09-12T00:11:37.035Z,20.33
2022-09-12T00:12:53.403Z,20.06
2022-09-12T00:14:10.092Z,20.41
2022-09-12T00:15:26.464Z,20.34
2022-09-12T00:16:43.063Z,20.77
2022-09-12T00:17:59.414Z,21.35
2022-09-12T00:19:15.806Z,20.95
2022-09-12T00:20:32.472Z,21.00
2022-09-12T00:21:48.890Z,20.22
2022-09-12T00:23:05.252Z,21.00
2022-09-12T00:24:21.625Z,20.74
2022-09-12T00:25:38.004Z,20.94
2022-09-12T00:26:54.729Z,20.93
2022-09-12T00:28:11.144Z,21.14
2022-09-12T00:29:27.512Z,21.15
2022-09-12T00:30:43.932Z,21.39
2022-09-12T00:32:00.365Z,21.33
2022-09-12T00:33:17.058Z,21.71
2022-09-12T00:34:33.458Z,21.67
2022-09-12T00:35:49.849Z,21.52
2022-09-12T00:37:06.229Z,22.12
2022-09-12T00:38:22.609Z,21.99
2022-09-12T00:39:39.384Z,21.96
2022-09-12T00:40:55.810Z,22.08
2022-09-12T00:42:12.259Z,22.03
2022-09-12T00:43:28.621Z,21.88
2022-09-12T00:44:45.021Z,22.84
2022-09-12T00:46:01.692Z,22.21
2022-09-12T00:47:18.105Z,22.57
2022-09-12T00:48:34.472Z,22.27
2022-09-12T00:49:50.914Z,22.52
2022-09-12T00:51:07.295Z,22.50
2022-09-12T00:52:23.992Z,22.26
2022-09-12T00:53:40.393Z,22.34
2022-09-12T00:54:56.839Z,23.21
2022-09-12T00:56:13.193Z,23.27
2022-09-12T00:57:29.603Z,23.03
2022-09-12T00:58:46.371Z,23.44
2022-09-12T01:00:02.839Z,23.71
2022-09-12T01:01:19.268Z,24.55
2022-09-12T01:02:35.678Z,24.32
2022-09-12T01:03:52.158Z,24.53
2022-09-12T01:05:08.552Z,24.82
2022-09-12T01:06:24.943Z,24.97
2022-09-12T01:07:41.338Z,24.77
2022-09-12T01:08:57.737Z,25.01
2022-09-12T01:10:14.150Z,24.65
2022-09-12T01:11:30.810Z,24.83
2022-09-12T01:12:47.248Z,25.02
2022-09-12T01:14:03.638Z,25.73
2022-09-12T01:15:20.027Z,25.20
2022-09-12T01:16:36.406Z,25.05
2022-09-12T01:17:53.159Z,24.97
2022-09-12T01:19:09.525Z,24.94
2022-09-12T01:20:25.894Z,24.98
2022-09-12T01:21:42.281Z,24.99
2022-09-12T01:22:58.691Z,25.34
2022-09-12T01:24:15.372Z,25.18
2022-09-12T01:25:31.742Z,25.61
2022-09-12T01:26:48.122Z,25.41
2022-09-12T01:28:04.536Z,25.59
2022-09-12T01:29:20.938Z,25.62
2022-09-12T01:30:37.595Z,25.38
2022-09-12T01:31:54.012Z,25.75
2022-09-12T01:33:10.434Z,24.97
2022-09-12T01:34:26.833Z,24.69
2022-09-12T01:35:43.203Z,24.71
2022-09-12T01:36:59.884Z,25.01
2022-09-12T01:38:16.298Z,25.45
2022-09-12T01:39:32.687Z,25.37
2022-09-12T01:40:49.059Z,25.19
2022-09-12T01:42:05.509Z,25.48
2022-09-12T01:43:22.166Z,24.84
2022-09-12T01:44:38.556Z,25.11
2022-09-12T01:45:54.974Z,25.28
2022-09-12T01:47:11.377Z,25.12
2022-09-12T01:48:27.803Z,25.11
2022-09-12T01:49:44.438Z,25.95
2022-09-12T01:51:00.862Z,25.87
2022-09-12T01:52:17.302Z,26.16
2022-09-12T01:53:33.658Z,26.36
2022-09-12T01:54:50.048Z,26.38
2022-09-12T01:56:06.741Z,26.41
2022-09-12T01:57:23.131Z,26.59
2022-09-12T01:58:39.505Z,26.03
2022-09-12T01:59:55.904Z,26.00
2022-09-12T02:01:12.339Z,26.14
2022-09-12T02:02:30.150Z,26.40
2022-09-12T02:03:46.511Z,26.34
2022-09-12T02:05:02.871Z,26.33
2022-09-12T02:06:19.284Z,26.50
2022-09-12T02:07:35.683Z,26.77
2022-09-12T02:08:52.363Z,26.30
2022-09-12T02:10:08.755Z,26.38
2022-09-12T02:11:25.165Z,26.24
2022-09-12T02:12:41.561Z,26.67
2022-09-12T02:13:57.959Z,26.29
2022-09-12T02:15:14.647Z,26.38
2022-09-12T02:16:31.097Z,26.30
2022-09-12T02:17:47.476Z,26.27
2022-09-12T02:19:03.855Z,26.34
2022-09-12T02:20:43.995Z,26.17
2022-09-12T02:21:41.498Z,26.42
2022-09-12T02:22:57.943Z,26.84
2022-09-12T02:24:14.345Z,26.67
2022-09-12T02:25:30.747Z,26.39
2022-09-12T02:26:47.146Z,26.47
2022-09-12T02:28:03.839Z,26.47
2022-09-12T02:29:20.264Z,26.66
2022-09-12T02:30:36.664Z,26.68
2022-09-12T02:31:53.083Z,26.63
2022-09-12T02:33:09.467Z,26.59
2022-09-12T02:34:25.879Z,26.43
2022-09-12T02:35:42.569Z,26.96
2022-09-12T02:36:58.958Z,26.74
2022-09-12T02:38:15.372Z,26.67
2022-09-12T02:39:31.799Z,26.57
2022-09-12T02:40:48.181Z,26.85
2022-09-12T02:42:04.832Z,27.03
2022-09-12T02:43:21.233Z,27.33
2022-09-12T02:44:37.641Z,26.88
2022-09-12T02:45:54.056Z,27.22
2022-09-12T02:47:11.393Z,27.45
2022-09-12T02:48:28.074Z,27.46
2022-09-12T02:49:44.483Z,27.34
2022-09-12T02:51:00.882Z,27.62
2022-09-12T02:52:17.259Z,27.23
2022-09-12T02:53:33.636Z,27.73
2022-09-12T02:54:50.337Z,27.95
2022-09-12T02:56:06.745Z,28.02
2022-09-12T02:57:23.402Z,28.14
2022-09-12T02:58:39.787Z,28.59
2022-09-12T02:59:56.224Z,28.50
2022-09-12T03:01:12.917Z,28.55
2022-09-12T03:02:29.311Z,28.28
2022-09-12T03:03:45.767Z,28.80
2022-09-12T03:05:02.234Z,28.43
2022-09-12T03:06:18.614Z,28.87
2022-09-12T03:07:35.276Z,28.53
2022-09-12T03:08:51.665Z,28.85
2022-09-12T03:10:08.107Z,28.87
2022-09-12T03:11:24.497Z,29.13
2022-09-12T03:12:40.960Z,28.90
2022-09-12T03:13:57.657Z,28.77
2022-09-12T03:15:15.020Z,28.69
2022-09-12T03:16:31.454Z,28.72
2022-09-12T03:17:47.839Z,28.70
2022-09-12T03:19:04.239Z,28.66
2022-09-12T03:20:20.929Z,28.47
2022-09-12T03:21:37.362Z,28.78
2022-09-12T03:22:53.727Z,28.72
2022-09-12T03:24:10.121Z,28.40
2022-09-12T03:25:26.535Z,28.42
2022-09-12T03:26:43.236Z,28.70
2022-09-12T03:27:59.620Z,28.76
2022-09-12T03:29:16.006Z,28.62
2022-09-12T03:30:32.462Z,28.94
2022-09-12T03:31:48.867Z,28.81
2022-09-12T03:33:05.234Z,28.41
2022-09-12T03:34:21.623Z,28.52
2022-09-12T03:35:38.034Z,28.99
2022-09-12T03:36:54.437Z,28.86
2022-09-12T03:38:10.803Z,29.12
2022-09-12T03:39:27.492Z,29.16
2022-09-12T03:40:43.885Z,29.25
2022-09-12T03:42:00.310Z,29.38
2022-09-12T03:43:16.685Z,29.92
2022-09-12T03:44:33.069Z,29.67
2022-09-12T03:45:49.828Z,29.45
2022-09-12T03:47:11.038Z,29.46
2022-09-12T03:48:28.370Z,29.65
2022-09-12T03:49:44.767Z,29.77
2022-09-12T03:51:01.187Z,30.04
2022-09-12T03:52:17.885Z,29.80
2022-09-12T03:53:34.263Z,29.74
2022-09-12T03:54:50.649Z,29.49
2022-09-12T03:56:07.091Z,29.43
2022-09-12T03:57:23.479Z,30.14
2022-09-12T03:58:40.152Z,29.83
2022-09-12T03:59:56.538Z,29.44
2022-09-12T04:01:13.011Z,29.58
2022-09-12T04:02:29.478Z,29.84
2022-09-12T04:03:45.834Z,29.32
2022-09-12T04:05:02.540Z,29.06
2022-09-12T04:06:18.964Z,29.45
2022-09-12T04:07:35.351Z,29.51
2022-09-12T04:08:51.761Z,29.34
2022-09-12T04:10:09.618Z,28.88
2022-09-12T04:11:26.451Z,28.91
2022-09-12T04:12:42.873Z,29.61
2022-09-12T04:13:59.245Z,29.05
2022-09-12T04:15:15.695Z,29.48
2022-09-12T04:16:32.123Z,29.49
2022-09-12T04:17:48.833Z,29.50
2022-09-12T04:19:05.215Z,30.00
2022-09-12T04:20:21.637Z,30.12
2022-09-12T04:21:38.032Z,29.61
2022-09-12T04:22:54.425Z,29.43
2022-09-12T04:24:11.146Z,29.41
2022-09-12T04:25:27.576Z,29.37
2022-09-12T04:26:43.968Z,29.69
2022-09-12T04:28:00.386Z,29.38
2022-09-12T04:29:16.840Z,29.45
2022-09-12T04:30:33.562Z,29.61
2022-09-12T04:31:49.927Z,29.60
2022-09-12T04:33:08.213Z,29.96
2022-09-12T04:34:26.805Z,29.70
2022-09-12T04:35:43.229Z,29.96
2022-09-12T04:36:59.928Z,30.28
2022-09-12T04:38:16.337Z,30.09
2022-09-12T04:39:32.780Z,30.43
2022-09-12T04:40:49.189Z,29.48
2022-09-12T04:42:05.589Z,30.19
2022-09-12T04:43:23.300Z,29.87
2022-09-12T04:44:44.571Z,30.09
2022-09-12T04:46:01.095Z,30.32
2022-09-12T04:47:19.464Z,30.49
2022-09-12T04:48:35.881Z,30.38
2022-09-12T04:49:52.598Z,30.28
2022-09-12T04:51:09.054Z,30.50
2022-09-12T04:52:25.454Z,30.65
2022-09-12T04:53:41.873Z,30.71
2022-09-12T04:55:00.264Z,30.82
2022-09-12T04:56:17.803Z,30.76
2022-09-12T04:57:34.364Z,30.87
2022-09-12T04:58:52.270Z,30.77
2022-09-12T05:00:10.209Z,30.80
2022-09-12T05:01:28.571Z,30.96
2022-09-12T05:02:46.186Z,31.07
2022-09-12T05:04:02.615Z,30.77
2022-09-12T05:05:21.062Z,30.86
2022-09-12T05:08:29.976Z,30.73
2022-09-12T05:09:46.369Z,31.03
2022-09-12T05:11:03.790Z,31.13
2022-09-12T05:12:21.659Z,30.94
2022-09-12T05:13:38.424Z,31.18
2022-09-12T05:14:56.765Z,31.40
2022-09-12T05:16:14.684Z,31.32
2022-09-12T05:17:32.602Z,31.20
2022-09-12T05:18:51.005Z,31.29
2022-09-12T05:20:08.686Z,30.92
2022-09-12T05:21:25.248Z,30.47
2022-09-12T05:22:43.648Z,30.66
2022-09-12T05:24:02.004Z,30.82
2022-09-12T05:25:20.968Z,30.76
2022-09-12T05:26:39.691Z,31.18
2022-09-12T05:27:57.631Z,30.97
2022-09-12T05:29:14.238Z,31.49
2022-09-12T05:30:32.234Z,31.27
2022-09-12T05:31:49.868Z,31.42
2022-09-12T05:33:12.001Z,31.53
2022-09-12T05:34:29.425Z,31.47
2022-09-12T05:35:49.921Z,31.33
2022-09-12T05:37:12.747Z,31.63
2022-09-12T05:38:30.185Z,31.44
2022-09-12T05:39:51.199Z,31.68
2022-09-12T05:41:16.646Z,31.68
2022-09-12T05:42:35.934Z,31.98
2022-09-12T05:43:53.342Z,31.92
2022-09-12T05:45:12.885Z,32.24
2022-09-12T05:46:30.866Z,32.36
2022-09-12T05:47:53.326Z,32.06
2022-09-12T05:49:12.100Z,31.98
2022-09-12T05:50:30.052Z,32.06
2022-09-12T05:51:46.610Z,31.98
2022-09-12T05:53:09.775Z,32.25
2022-09-12T05:54:30.845Z,32.49
2022-09-12T05:55:49.971Z,31.80
2022-09-12T05:57:07.970Z,32.16
2022-09-12T05:58:25.417Z,31.98
2022-09-12T05:59:44.712Z,31.84
2022-09-12T06:01:03.143Z,31.50
2022-09-12T06:02:20.551Z,31.89
2022-09-12T06:03:40.362Z,31.80
2022-09-12T06:04:57.681Z,31.82
2022-09-12T06:06:15.320Z,32.14
2022-09-12T06:07:33.823Z,31.83
2022-09-12T06:08:51.229Z,32.03
2022-09-12T06:10:12.384Z,31.50
2022-09-12T06:11:30.822Z,31.78
2022-09-12T06:12:47.370Z,31.53
2022-09-12T06:14:05.743Z,31.58
2022-09-12T06:15:23.168Z,31.83
2022-09-12T06:16:41.338Z,31.44
2022-09-12T06:17:59.197Z,31.77
2022-09-12T06:19:15.713Z,31.42
2022-09-12T06:20:33.275Z,31.82
2022-09-12T06:21:52.984Z,31.66
2022-09-12T06:23:10.839Z,32.34
2022-09-12T06:24:28.598Z,32.57
2022-09-12T06:25:45.116Z,32.54
2022-09-12T06:27:03.625Z,32.61
2022-09-12T06:28:22.528Z,32.77
2022-09-12T06:29:39.226Z,32.30
2022-09-12T06:30:57.873Z,32.36
2022-09-12T06:32:14.459Z,32.33
2022-09-12T06:33:32.908Z,32.76
2022-09-12T06:34:50.327Z,33.04
2022-09-12T06:36:12.162Z,33.05
2022-09-12T06:37:30.035Z,33.21
2022-09-12T06:38:49.010Z,32.81
2022-09-12T06:40:06.625Z,33.12
2022-09-12T06:41:24.071Z,32.82
2022-09-12T06:42:40.640Z,32.80
2022-09-12T06:43:59.137Z,32.99
2022-09-12T06:45:17.606Z,33.17
2022-09-12T06:46:36.102Z,33.22
2022-09-12T06:47:53.550Z,33.27
2022-09-12T06:51:06.082Z,33.19
2022-09-12T06:52:23.696Z,33.54
2022-09-12T06:53:42.166Z,33.13
2022-09-12T06:55:00.988Z,33.51
2022-09-12T06:56:18.499Z,33.74
2022-09-12T06:57:36.461Z,33.44
2022-09-12T06:58:55.181Z,33.58
2022-09-12T07:00:13.521Z,33.75
2022-09-12T07:01:34.775Z,33.78
2022-09-12T07:02:52.763Z,33.89
2022-09-12T07:04:11.194Z,34.34
2022-09-12T07:05:28.677Z,34.08
2022-09-12T07:06:48.493Z,33.87
2022-09-12T07:08:06.951Z,33.61
2022-09-12T07:09:24.473Z,33.94
2022-09-12T07:10:43.339Z,33.53
2022-09-12T07:12:01.818Z,33.33
2022-09-12T07:13:19.266Z,33.54
2022-09-12T07:14:36.956Z,33.41
2022-09-12T07:16:03.942Z,33.05
2022-09-12T07:17:20.565Z,33.44
2022-09-12T07:18:38.697Z,33.66
2022-09-12T07:20:03.058Z,33.35
2022-09-12T07:21:22.174Z,33.51
2022-09-12T07:22:41.118Z,33.23
2022-09-12T07:23:59.655Z,33.02
2022-09-12T07:25:18.341Z,33.13
2022-09-12T07:26:34.898Z,33.17
2022-09-12T07:27:59.252Z,32.97
2022-09-12T07:29:35.857Z,32.76
2022-09-12T07:30:47.951Z,32.75
2022-09-12T07:32:08.006Z,32.84
2022-09-12T07:33:27.248Z,32.81
2022-09-12T07:34:44.669Z,33.07
2022-09-12T07:36:04.129Z,32.94
2022-09-12T07:37:21.971Z,32.96
2022-09-12T07:38:39.363Z,32.64
2022-09-12T07:39:57.775Z,32.84
2022-09-12T07:41:18.103Z,33.07
2022-09-12T07:42:38.549Z,32.95
2022-09-12T07:45:48.641Z,32.85
2022-09-12T07:47:07.224Z,32.86
2022-09-12T07:48:25.094Z,32.95
2022-09-12T07:49:45.030Z,32.99
2022-09-12T07:51:03.841Z,32.74
2022-09-12T07:54:12.021Z,32.67
2022-09-12T07:55:30.054Z,32.62
2022-09-12T07:56:49.842Z,33.26
2022-09-12T07:58:08.593Z,33.34
2022-09-12T07:59:50.961Z,33.30
2022-09-12T08:00:50.291Z,33.25
2022-09-12T08:02:08.233Z,33.60
2022-09-12T08:03:25.624Z,33.60
2022-09-12T08:04:44.043Z,33.94
2022-09-12T08:06:01.485Z,33.93
2022-09-12T08:07:19.385Z,34.09
2022-09-12T08:10:30.695Z,33.45
2022-09-12T08:11:48.169Z,34.26
2022-09-12T08:13:05.598Z,34.07
2022-09-12T08:14:23.401Z,33.96
2022-09-12T08:15:44.295Z,34.15
2022-09-12T08:17:02.160Z,33.88
2022-09-12T08:18:20.290Z,33.74
2022-09-12T08:19:38.155Z,34.35
2022-09-12T08:20:56.863Z,33.74
2022-09-12T08:22:15.106Z,34.10
2022-09-12T08:23:32.461Z,33.71
2022-09-12T08:24:50.343Z,34.04
2022-09-12T08:26:08.342Z,34.10
2022-09-12T08:27:26.199Z,34.15
2022-09-12T08:28:43.835Z,33.90
2022-09-12T08:30:04.071Z,33.81
2022-09-12T08:31:22.034Z,34.06
2022-09-12T08:32:42.475Z,33.87
2022-09-12T08:34:01.104Z,33.92
2022-09-12T08:35:19.880Z,33.96
2022-09-12T08:36:42.712Z,33.98
2022-09-12T08:38:01.073Z,33.91
2022-09-12T08:39:21.859Z,34.07
2022-09-12T08:40:40.072Z,34.10
2022-09-12T08:41:59.788Z,34.46
2022-09-12T08:43:17.399Z,34.35
2022-09-12T08:44:37.354Z,34.19
2022-09-12T08:45:58.027Z,33.70
2022-09-12T08:47:16.401Z,34.21
2022-09-12T08:48:34.822Z,34.02
2022-09-12T08:49:52.728Z,34.14
2022-09-12T08:51:11.190Z,33.99
2022-09-12T08:52:29.004Z,33.96
2022-09-12T08:53:47.830Z,34.15
2022-09-12T08:55:05.286Z,34.44
2022-09-12T08:56:23.668Z,34.25
2022-09-12T08:57:41.555Z,34.61
2022-09-12T08:59:00.297Z,34.74
2022-09-12T09:00:19.938Z,34.88
2022-09-12T09:01:38.858Z,34.95
2022-09-12T09:02:58.426Z,35.26
2022-09-12T09:04:17.870Z,35.26
2022-09-12T09:05:38.647Z,35.07
2022-09-12T09:06:58.383Z,35.06
2022-09-12T09:08:16.706Z,35.08
2022-09-12T09:09:34.139Z,35.25
2022-09-12T09:10:53.076Z,35.39
2022-09-12T09:12:12.253Z,35.27
2022-09-12T09:13:31.468Z,35.51
2022-09-12T09:14:49.934Z,35.12
2022-09-12T09:16:08.369Z,35.20
2022-09-12T09:17:26.240Z,35.35
2022-09-12T09:18:44.907Z,35.39
2022-09-12T09:20:02.786Z,35.86
2022-09-12T09:21:20.605Z,35.53
2022-09-12T09:22:39.030Z,35.40
2022-09-12T09:23:57.420Z,35.08
2022-09-12T09:25:15.196Z,35.64
2022-09-12T09:26:33.590Z,36.02
2022-09-12T09:27:51.948Z,36.01
2022-09-12T09:29:09.792Z,35.78
2022-09-12T09:30:28.732Z,36.13
2022-09-12T09:31:48.421Z,36.07
2022-09-12T09:33:06.890Z,36.07
2022-09-12T09:34:25.282Z,35.89
2022-09-12T09:35:43.234Z,36.16
2022-09-12T09:37:01.123Z,35.77
2022-09-12T09:38:19.372Z,35.99
2022-09-12T09:39:37.763Z,36.11
2022-09-12T09:40:55.138Z,36.18
2022-09-12T09:42:13.542Z,36.21
2022-09-12T09:43:31.242Z,36.43
2022-09-12T09:44:50.668Z,36.40
2022-09-12T09:46:09.036Z,36.55
2022-09-12T09:47:26.842Z,36.69
2022-09-12T09:48:45.769Z,36.58
2022-09-12T09:50:04.174Z,36.89
2022-09-12T09:51:22.524Z,36.69
2022-09-12T09:52:40.345Z,36.69
2022-09-12T09:53:58.296Z,36.47
2022-09-12T09:55:17.065Z,36.45
2022-09-12T09:56:35.724Z,36.76
2022-09-12T09:57:54.623Z,36.80
2022-09-12T09:59:12.575Z,37.21
2022-09-12T10:00:31.317Z,37.35
2022-09-12T10:01:48.297Z,37.97
2022-09-12T10:03:12.629Z,37.63
2022-09-12T10:04:30.136Z,38.07
2022-09-12T10:05:48.057Z,38.06
2022-09-12T10:07:05.920Z,38.00
2022-09-12T10:08:23.781Z,38.36
2022-09-12T10:09:41.930Z,38.02
2022-09-12T10:10:59.826Z,38.74
2022-09-12T10:12:17.665Z,38.20
2022-09-12T10:13:35.553Z,39.10
2022-09-12T10:14:53.533Z,39.07
2022-09-12T10:16:11.759Z,39.61
2022-09-12T10:17:34.275Z,39.44
2022-09-12T10:18:52.608Z,39.19
2022-09-12T10:20:21.153Z,39.33
2022-09-12T10:21:32.660Z,40.09
2022-09-12T10:22:51.326Z,39.44
2022-09-12T10:24:09.261Z,39.92
2022-09-12T10:25:27.102Z,39.69
2022-09-12T10:26:45.101Z,39.51
2022-09-12T10:28:03.719Z,39.71
2022-09-12T10:29:21.621Z,39.50
2022-09-12T10:30:40.444Z,40.05
2022-09-12T10:32:00.530Z,40.39
2022-09-12T10:33:19.996Z,39.85
2022-09-12T10:36:28.406Z,40.20
2022-09-12T10:37:49.388Z,40.08
2022-09-12T10:39:09.018Z,40.06
2022-09-12T10:40:28.435Z,40.07
2022-09-12T10:41:46.982Z,40.70
2022-09-12T10:43:05.220Z,40.71
2022-09-12T10:44:23.782Z,40.71
2022-09-12T10:45:41.977Z,40.61
2022-09-12T10:47:01.021Z,40.74
2022-09-12T10:48:18.885Z,41.24
2022-09-12T10:49:37.584Z,41.12
2022-09-12T10:51:00.206Z,41.49
2022-09-12T10:52:18.948Z,41.55
2022-09-12T10:53:37.390Z,41.30
2022-09-12T10:54:56.259Z,41.24
2022-09-12T10:56:14.644Z,41.54
2022-09-12T10:57:33.038Z,41.55
2022-09-12T10:58:52.198Z,41.76
2022-09-12T11:00:10.940Z,41.82
2022-09-12T11:01:29.385Z,42.04
2022-09-12T11:02:50.274Z,41.95
2022-09-12T11:04:10.062Z,41.89
2022-09-12T11:07:20.354Z,42.29
2022-09-12T11:08:38.783Z,42.03
2022-09-12T11:09:57.236Z,42.03
2022-09-12T11:11:14.974Z,42.15
2022-09-12T11:12:34.366Z,42.23
2022-09-12T11:13:52.771Z,42.55
2022-09-12T11:15:11.115Z,42.57
2022-09-12T11:16:29.018Z,43.10
2022-09-12T11:17:46.862Z,43.04
2022-09-12T11:19:04.708Z,43.35
2022-09-12T11:20:22.602Z,43.42
2022-09-12T11:21:40.463Z,43.76
2022-09-12T11:22:58.329Z,43.42
2022-09-12T11:24:17.536Z,43.69
2022-09-12T11:25:35.392Z,43.98
2022-09-12T11:26:53.771Z,44.27
2022-09-12T11:28:11.158Z,44.72
2022-09-12T11:29:28.524Z,44.48
2022-09-12T11:30:47.264Z,44.33
2022-09-12T11:32:05.626Z,45.38
2022-09-12T11:33:24.246Z,45.46
2022-09-12T11:34:42.576Z,45.62
2022-09-12T11:36:01.840Z,45.94
2022-09-12T11:37:20.199Z,45.76
2022-09-12T11:38:38.067Z,45.95
2022-09-12T11:39:56.427Z,45.84
2022-09-12T11:41:21.369Z,46.03
2022-09-12T11:42:39.861Z,46.00
2022-09-12T11:43:57.738Z,46.28
2022-09-12T11:45:16.659Z,46.47
2022-09-12T11:46:34.061Z,46.51
2022-09-12T11:47:52.779Z,46.38
2022-09-12T11:49:10.654Z,46.39
2022-09-12T11:50:28.049Z,46.24
2022-09-12T11:51:47.490Z,46.08
2022-09-12T11:53:06.276Z,46.45
2022-09-12T11:54:29.913Z,46.62
2022-09-12T11:55:48.907Z,46.84
2022-09-12T11:57:07.016Z,46.68
2022-09-12T11:58:25.204Z,46.69
2022-09-12T11:59:50.520Z,47.15
2022-09-12T12:02:59.842Z,47.48
2022-09-12T12:04:19.627Z,47.47
2022-09-12T12:05:38.118Z,47.44
2022-09-12T12:06:56.046Z,47.81
2022-09-12T12:08:14.759Z,47.82
2022-09-12T12:09:32.241Z,47.83
2022-09-12T12:10:51.208Z,47.95
2022-09-12T12:12:09.794Z,48.56
2022-09-12T12:13:28.310Z,48.06
2022-09-12T12:14:46.148Z,47.82
2022-09-12T12:16:05.115Z,48.26
2022-09-12T12:17:22.659Z,48.66
2022-09-12T12:18:40.199Z,48.65
2022-09-12T12:20:01.077Z,48.85
2022-09-12T12:21:21.325Z,48.59
2022-09-12T12:22:38.744Z,48.37
2022-09-12T12:23:59.177Z,48.10
2022-09-12T12:25:21.931Z,48.36
2022-09-12T12:26:41.537Z,48.59
2022-09-12T12:27:59.404Z,48.92
2022-09-12T12:29:17.020Z,49.01
2022-09-12T12:30:36.188Z,49.08
2022-09-12T12:31:53.765Z,49.45
2022-09-12T12:33:14.397Z,49.58
2022-09-12T12:34:32.904Z,49.74
2022-09-12T12:35:50.387Z,50.08
2022-09-12T12:37:08.542Z,49.86
2022-09-12T12:38:27.014Z,50.08
2022-09-12T12:39:46.517Z,50.10
2022-09-12T12:41:04.425Z,50.41
2022-09-12T12:42:23.199Z,50.15
2022-09-12T12:43:41.285Z,50.59
2022-09-12T12:44:59.705Z,50.62
2022-09-12T12:46:17.776Z,51.02
2022-09-12T12:47:35.285Z,50.80
2022-09-12T12:48:52.750Z,51.32
2022-09-12T12:50:13.110Z,51.23
2022-09-12T12:51:31.707Z,51.60
2022-09-12T12:52:50.037Z,51.44
2022-09-12T12:54:12.848Z,52.05
2022-09-12T12:55:29.864Z,51.91
2022-09-12T12:56:47.806Z,52.41
2022-09-12T12:58:06.419Z,52.08
2022-09-12T12:59:24.803Z,51.97
2022-09-12T13:00:42.158Z,53.20
2022-09-12T13:01:59.979Z,52.95
2022-09-12T13:03:17.861Z,53.28
2022-09-12T13:04:35.712Z,53.18
2022-09-12T13:05:53.097Z,53.01
2022-09-12T13:07:11.246Z,53.54
2022-09-12T13:08:29.114Z,54.01
2022-09-12T13:09:47.286Z,53.63
2022-09-12T13:11:05.698Z,53.98
2022-09-12T13:12:24.959Z,54.40
2022-09-12T13:13:47.248Z,54.13
2022-09-12T13:15:06.108Z,54.21
2022-09-12T13:16:25.981Z,54.20
2022-09-12T13:17:45.529Z,54.77
2022-09-12T13:19:05.789Z,54.71
2022-09-12T13:20:28.960Z,55.37
2022-09-12T13:21:47.392Z,55.29
2022-09-12T13:23:05.223Z,55.81
2022-09-12T13:24:21.682Z,55.82
2022-09-12T13:25:39.763Z,56.19
2022-09-12T13:26:56.500Z,56.17
2022-09-12T13:28:13.929Z,56.81
2022-09-12T13:29:32.408Z,56.43
2022-09-12T13:30:50.327Z,56.15
2022-09-12T13:32:08.177Z,56.68
2022-09-12T13:33:26.636Z,56.69
2022-09-12T13:34:45.808Z,56.51
2022-09-12T13:36:03.697Z,56.42
2022-09-12T13:37:21.569Z,56.15
2022-09-12T13:38:39.193Z,56.64
2022-09-12T13:39:59.737Z,56.07
2022-09-12T13:41:17.046Z,56.05
2022-09-12T13:42:35.834Z,56.66
2022-09-12T13:43:53.164Z,56.69
2022-09-12T13:45:10.614Z,57.06
2022-09-12T13:46:28.559Z,56.66
2022-09-12T13:47:46.461Z,56.89
2022-09-12T13:49:04.187Z,56.95
2022-09-12T13:50:24.075Z,57.32
2022-09-12T13:51:43.930Z,57.89
2022-09-12T13:53:01.901Z,58.12
2022-09-12T13:56:10.740Z,58.41
2022-09-12T13:57:28.581Z,58.41
2022-09-12T13:58:47.041Z,58.59
2022-09-12T14:00:04.903Z,58.60
2022-09-12T14:01:22.608Z,58.82
2022-09-12T14:02:41.920Z,58.73
2022-09-12T14:03:59.723Z,59.00
2022-09-12T14:05:17.213Z,58.98
2022-09-12T14:06:35.575Z,58.96
2022-09-12T14:07:55.215Z,58.49
2022-09-12T14:09:14.082Z,59.41
2022-09-12T14:10:32.840Z,59.21
2022-09-12T14:11:51.219Z,59.30
2022-09-12T14:13:09.989Z,59.67
2022-09-12T14:14:28.676Z,59.44
2022-09-12T14:15:46.073Z,59.76
2022-09-12T14:17:03.450Z,60.21
2022-09-12T14:18:21.668Z,59.88
2022-09-12T14:19:38.997Z,60.48
2022-09-12T14:20:56.675Z,60.55
2022-09-12T14:22:14.606Z,60.15
2022-09-12T14:23:33.041Z,59.97
2022-09-12T14:24:51.425Z,59.81
2022-09-12T14:26:09.645Z,60.10
2022-09-12T14:27:27.536Z,60.50
2022-09-12T14:28:45.571Z,60.42
2022-09-12T14:30:03.522Z,60.50
2022-09-12T14:31:25.849Z,60.66
2022-09-12T14:32:43.813Z,60.36
2022-09-12T14:34:01.683Z,59.83
2022-09-12T14:35:19.546Z,60.09
2022-09-12T14:36:37.046Z,60.37
2022-09-12T14:37:55.214Z,60.45
2022-09-12T14:39:12.595Z,60.30
2022-09-12T14:40:29.934Z,60.75
2022-09-12T14:41:47.285Z,60.71
2022-09-12T14:43:05.165Z,60.97
2022-09-12T14:44:23.317Z,61.01
2022-09-12T14:45:39.719Z,61.38
2022-09-12T14:46:57.578Z,61.74
2022-09-12T14:48:15.449Z,61.82
2022-09-12T14:49:33.661Z,61.79
2022-09-12T14:50:52.312Z,62.37
2022-09-12T14:52:10.171Z,62.34
2022-09-12T14:53:28.086Z,62.15
2022-09-12T14:54:45.979Z,62.62
2022-09-12T14:56:03.852Z,62.99
2022-09-12T14:57:21.483Z,63.10
2022-09-12T14:58:40.673Z,62.97
2022-09-12T14:59:58.744Z,62.75
2022-09-12T15:01:16.788Z,63.28
2022-09-12T15:02:36.425Z,62.68
2022-09-12T15:03:54.169Z,62.91
2022-09-12T15:05:12.322Z,62.90
2022-09-12T15:06:30.198Z,63.21
2022-09-12T15:07:48.078Z,63.25
2022-09-12T15:09:05.945Z,63.40
2022-09-12T15:10:24.060Z,63.55
2022-09-12T15:11:41.759Z,63.76
2022-09-12T15:12:59.171Z,64.56
2022-09-12T15:14:17.105Z,64.65
2022-09-12T15:15:35.891Z,64.85
2022-09-12T15:16:54.115Z,64.74
2022-09-12T15:18:13.808Z,64.42
2022-09-12T15:19:31.264Z,64.73
2022-09-12T15:20:48.196Z,64.70
2022-09-12T15:22:07.652Z,64.74
2022-09-12T15:23:25.429Z,65.16
2022-09-12T15:24:42.227Z,64.75
2022-09-12T15:26:01.148Z,65.00
2022-09-12T15:27:19.578Z,64.87
2022-09-12T15:28:38.500Z,64.79
2022-09-12T15:29:55.238Z,64.99
2022-09-12T15:31:13.081Z,64.54
2022-09-12T15:32:30.924Z,65.65
2022-09-12T15:33:48.962Z,65.65
2022-09-12T15:35:06.853Z,65.71
2022-09-12T15:36:24.582Z,65.60
2022-09-12T15:37:42.454Z,65.78
2022-09-12T15:39:00.368Z,65.02
2022-09-12T15:40:18.278Z,65.25
2022-09-12T15:41:34.698Z,65.48
2022-09-12T15:42:52.896Z,65.63
2022-09-12T15:44:10.734Z,65.47
2022-09-12T15:45:28.579Z,65.68
2022-09-12T15:46:46.545Z,65.97
2022-09-12T15:48:04.497Z,66.03
2022-09-12T15:49:26.756Z,66.30
2022-09-12T15:50:44.658Z,66.32
2022-09-12T15:52:02.554Z,66.68
2022-09-12T15:53:20.407Z,66.58
2022-09-12T15:54:40.256Z,66.74
2022-09-12T15:55:58.112Z,67.29
2022-09-12T15:57:16.008Z,67.22
2022-09-12T15:58:33.863Z,67.14
2022-09-12T15:59:52.226Z,67.68
2022-09-12T16:01:09.870Z,67.47
2022-09-12T16:02:27.896Z,67.65
2022-09-12T16:03:45.274Z,68.09
2022-09-12T16:05:03.694Z,67.96
2022-09-12T16:06:23.300Z,68.13
2022-09-12T16:07:41.244Z,68.06
2022-09-12T16:08:59.440Z,67.97
2022-09-12T16:10:16.068Z,68.16
2022-09-12T16:11:34.463Z,68.05
2022-09-12T16:12:52.690Z,67.80
2022-09-12T16:14:10.769Z,67.87
2022-09-12T16:15:28.653Z,67.27
2022-09-12T16:16:46.521Z,67.45
2022-09-12T16:18:04.325Z,67.58
2022-09-12T16:19:24.185Z,67.94
2022-09-12T16:20:42.153Z,68.02
2022-09-12T16:22:03.524Z,68.05
2022-09-12T16:23:21.055Z,67.79
2022-09-12T16:24:38.935Z,67.87
2022-09-12T16:25:57.895Z,68.36
2022-09-12T16:27:14.348Z,68.50
2022-09-12T16:28:31.887Z,68.47
2022-09-12T16:29:49.748Z,68.40
2022-09-12T16:31:06.228Z,68.31
2022-09-12T16:32:24.902Z,68.54
2022-09-12T16:33:44.749Z,68.65
2022-09-12T16:35:02.832Z,69.07
2022-09-12T16:36:20.726Z,68.28
2022-09-12T16:37:38.577Z,68.60
2022-09-12T16:38:57.424Z,68.83
2022-09-12T16:40:14.131Z,69.33
2022-09-12T16:41:32.104Z,69.18
2022-09-12T16:42:49.963Z,69.08
2022-09-12T16:44:06.504Z,69.32
2022-09-12T16:45:24.687Z,69.39
2022-09-12T16:46:42.543Z,69.38
2022-09-12T16:48:00.407Z,69.08
2022-09-12T16:49:18.396Z,69.56
2022-09-12T16:50:36.875Z,69.60
2022-09-12T16:51:55.013Z,69.90
2022-09-12T16:53:12.897Z,70.05
2022-09-12T16:54:32.540Z,70.37
2022-09-12T16:55:51.386Z,70.56
2022-09-12T16:57:12.738Z,70.26
2022-09-12T16:58:30.899Z,70.37
2022-09-12T16:59:48.732Z,70.74